Observations for BRESCIA MONTICHIA, Italy (LIPO)

LIPO 181350Z 11008KT CAVOK 21/05 Q1024  
LIPO 181250Z 12006KT CAVOK 20/04 Q1024  
LIPO 181150Z 13003KT CAVOK 19/04 Q1024  
LIPO 181050Z 12009KT CAVOK 19/04 Q1025  
LIPO 180950Z 10007KT CAVOK 18/04 Q1025  
LIPO 180850Z 12011KT CAVOK 18/05 Q1025  
LIPO 180750Z 11012KT CAVOK 17/04 Q1025  
LIPO 180650Z 08008KT CAVOK 15/05 Q1024  
LIPO 180550Z 07007KT 8000 NSC 12/06 Q1023   
LIPO 180450Z 09006KT CAVOK 11/06 Q1023  
LIPO 180350Z 08005KT CAVOK 11/05 Q1023  
LIPO 180250Z 05003KT CAVOK 12/07 Q1012  
LIPO 180150Z 04004KT CAVOK 11/07 Q1022  
LIPO 180050Z 08003KT CAVOK 12/06 Q1022  
LIPO 172350Z 05005KT CAVOK 13/06 Q1022  
LIPO 172250Z 06005KT CAVOK 13/07 Q1021  
LIPO 172150Z 04003KT CAVOK 14/08 Q1021  
LIPO 172050Z 04005KT 9999 SCT080 15/08 Q1021
LIPO 171950Z 11001KT 9999 SCT080 17/07 Q1020
LIPO 171850Z 20002KT 9999 SCT080 18/06 Q1020
LIPO 171750Z 20002KT CAVOK 19/06 Q1019  
LIPO 171650Z 23005KT CAVOK 21/04 Q1019  
LIPO 171550Z 17004KT CAVOK 21/04 Q1019  
LIPO 171450Z 23003KT CAVOK 21/04 Q1019  
LIPO 171350Z 26006KT CAVOK 21/04 Q1019